createdAt,value
2019-03-30T00:00:31.630Z,102126.09
2019-03-30T00:03:02.005Z,102128.69
2019-03-30T00:05:32.383Z,102121.53
2019-03-30T00:08:03.701Z,102123.12
2019-03-30T00:10:34.068Z,102117.67
2019-03-30T00:13:04.904Z,102118.92
2019-03-30T00:15:35.269Z,102124.56
2019-03-30T00:18:05.664Z,102120.95
2019-03-30T00:20:36.047Z,102120.27
2019-03-30T00:23:06.476Z,102121.28
2019-03-30T00:25:36.817Z,102117.71
2019-03-30T00:28:07.164Z,102118.39
2019-03-30T00:30:37.519Z,102117.37
2019-03-30T00:33:07.791Z,102115.86
2019-03-30T00:35:38.073Z,102114.28
2019-03-30T00:38:08.397Z,102118.30
2019-03-30T00:40:39.426Z,102123.05
2019-03-30T00:43:10.448Z,102116.55
2019-03-30T00:45:41.660Z,102116.64
2019-03-30T00:48:13.809Z,102117.82
2019-03-30T00:50:45.945Z,102111.92
2019-03-30T00:53:16.945Z,102116.47
2019-03-30T00:55:57.627Z,102114.94
2019-03-30T00:58:28.771Z,102109.44
2019-03-30T01:00:59.812Z,102108.81
2019-03-30T01:03:30.805Z,102108.01
2019-03-30T01:06:01.822Z,102097.20
2019-03-30T01:08:32.508Z,102103.31
2019-03-30T01:11:03.647Z,102102.64
2019-03-30T01:13:34.787Z,102099.45
2019-03-30T01:16:05.907Z,102096.09
2019-03-30T01:18:36.919Z,102093.61
2019-03-30T01:21:20.158Z,102089.90
2019-03-30T01:23:51.187Z,102090.42
2019-03-30T01:26:22.746Z,102090.48
2019-03-30T01:28:53.790Z,102085.93
2019-03-30T01:31:24.879Z,102083.34
2019-03-30T01:33:57.017Z,102082.36
2019-03-30T01:36:28.825Z,102075.93
2019-03-30T01:38:59.842Z,102076.53
2019-03-30T01:41:30.883Z,102071.44
2019-03-30T01:44:01.901Z,102069.06
2019-03-30T01:46:32.941Z,102064.45
2019-03-30T01:49:03.978Z,102064.73
2019-03-30T01:51:35.006Z,102065.54
2019-03-30T01:54:06.598Z,102067.48
2019-03-30T01:56:37.041Z,102064.83
2019-03-30T01:59:07.594Z,102065.47
2019-03-30T02:01:48.583Z,102054.38
2019-03-30T02:04:19.647Z,102058.33
2019-03-30T02:06:50.666Z,102054.78
2019-03-30T02:09:21.757Z,102052.83
2019-03-30T02:11:52.770Z,102054.24
2019-03-30T02:14:24.914Z,102053.65
2019-03-30T02:16:56.491Z,102047.06
2019-03-30T02:19:27.514Z,102046.78
2019-03-30T02:21:58.013Z,102048.83
2019-03-30T02:24:28.410Z,102048.40
2019-03-30T02:27:00.478Z,102048.62
2019-03-30T02:29:30.838Z,102052.13
2019-03-30T02:32:01.190Z,102054.06
2019-03-30T02:34:31.563Z,102047.08
2019-03-30T02:37:01.932Z,102048.58
2019-03-30T02:39:32.409Z,102044.88
2019-03-30T02:42:02.778Z,102047.41
2019-03-30T02:44:34.051Z,102048.16
2019-03-30T02:47:04.430Z,102052.84
2019-03-30T02:49:35.876Z,102049.86
2019-03-30T02:52:06.238Z,102046.57
2019-03-30T02:54:36.603Z,102043.77
2019-03-30T02:57:07.454Z,102039.50
2019-03-30T02:59:37.818Z,102033.48
2019-03-30T03:02:08.218Z,102036.19
2019-03-30T03:04:38.865Z,102032.87
2019-03-30T03:07:09.204Z,102031.66
2019-03-30T03:09:39.573Z,102032.06
2019-03-30T03:12:09.962Z,102027.56
2019-03-30T03:14:41.306Z,102035.25
2019-03-30T03:17:11.679Z,102036.56
2019-03-30T03:19:42.056Z,102033.52
2019-03-30T03:22:12.425Z,102035.63
2019-03-30T03:24:42.785Z,102036.45
2019-03-30T03:27:13.156Z,102030.59
2019-03-30T03:29:44.303Z,102040.42
2019-03-30T03:32:14.763Z,102036.28
2019-03-30T03:34:45.268Z,102035.74
2019-03-30T03:37:15.710Z,102033.45
2019-03-30T03:39:46.117Z,102032.25
2019-03-30T03:42:16.571Z,102031.97
2019-03-30T03:44:46.927Z,102029.48
2019-03-30T03:47:17.307Z,102028.72
2019-03-30T03:49:47.691Z,102026.20
2019-03-30T03:52:18.039Z,102027.08
2019-03-30T03:54:48.430Z,102022.66
2019-03-30T03:57:18.813Z,102025.11
2019-03-30T03:59:49.730Z,102030.81
2019-03-30T04:02:20.081Z,102028.90
2019-03-30T04:04:50.448Z,102018.02
2019-03-30T04:07:20.820Z,102013.95
2019-03-30T04:09:51.329Z,102014.70
2019-03-30T04:12:22.349Z,102014.44
2019-03-30T04:14:52.696Z,102006.14
2019-03-30T04:17:23.069Z,102013.27
2019-03-30T04:19:53.520Z,102007.88
2019-03-30T04:22:23.896Z,102006.51
2019-03-30T04:24:54.263Z,102011.09
2019-03-30T04:27:24.627Z,102008.63
2019-03-30T04:29:54.996Z,102006.61
2019-03-30T04:32:25.384Z,102002.08
2019-03-30T04:34:55.731Z,101993.94
2019-03-30T04:37:26.097Z,101993.98
2019-03-30T04:39:56.468Z,101994.40
2019-03-30T04:42:26.842Z,101986.64
2019-03-30T04:44:57.200Z,101987.02
2019-03-30T04:47:27.572Z,101988.37
2019-03-30T04:49:57.949Z,101987.02
2019-03-30T04:52:28.305Z,101983.43
2019-03-30T04:54:58.741Z,101983.65
2019-03-30T04:57:29.258Z,101981.12
2019-03-30T05:00:00.830Z,101985.38
2019-03-30T05:02:31.314Z,101982.92
2019-03-30T05:05:01.667Z,101977.78
2019-03-30T05:07:32.033Z,101981.09
2019-03-30T05:10:02.457Z,101974.36
2019-03-30T05:12:32.885Z,101968.11
2019-03-30T05:15:03.533Z,101966.70
2019-03-30T05:17:46.897Z,101960.63
2019-03-30T05:20:06.827Z,101959.86
2019-03-30T05:22:37.177Z,101956.95
2019-03-30T05:25:07.591Z,101957.98
2019-03-30T05:27:38.138Z,101961.75
2019-03-30T05:30:08.720Z,101966.50
2019-03-30T05:32:41.668Z,101966.08
2019-03-30T05:35:11.462Z,101968.52
2019-03-30T05:37:41.836Z,101968.80
2019-03-30T05:40:12.318Z,101972.69
2019-03-30T05:42:42.694Z,101968.63
2019-03-30T05:45:13.134Z,101973.98
2019-03-30T05:47:43.503Z,101969.98
2019-03-30T05:52:45.132Z,101955.89
2019-03-30T05:55:15.501Z,101953.95
2019-03-30T05:57:45.863Z,101959.13
2019-03-30T06:00:18.186Z,101960.86
2019-03-30T06:02:48.746Z,101963.64
2019-03-30T06:05:19.091Z,101965.34
2019-03-30T06:07:49.748Z,101960.95
2019-03-30T06:10:20.121Z,101967.71
2019-03-30T06:12:50.804Z,101964.53
2019-03-30T06:15:21.981Z,101966.92
2019-03-30T06:17:52.364Z,101978.17
2019-03-30T06:20:22.724Z,101976.56
2019-03-30T06:22:53.143Z,101963.43
2019-03-30T06:25:23.541Z,101971.20
2019-03-30T06:27:53.931Z,101967.02
2019-03-30T06:30:27.583Z,101971.26
2019-03-30T06:32:57.943Z,101963.89
2019-03-30T06:35:28.741Z,101961.62
2019-03-30T06:37:59.387Z,101956.97
2019-03-30T06:40:29.763Z,101957.52
2019-03-30T06:43:00.152Z,101955.78
2019-03-30T06:45:30.525Z,101958.66
2019-03-30T06:48:00.885Z,101951.34
2019-03-30T06:50:31.277Z,101955.59
2019-03-30T06:53:01.731Z,101954.43
2019-03-30T06:55:32.115Z,101952.83
2019-03-30T06:58:02.493Z,101950.77
2019-03-30T07:00:34.012Z,101953.02
2019-03-30T07:03:05.123Z,101947.59
2019-03-30T07:05:39.707Z,101944.63
2019-03-30T07:08:12.096Z,101946.47
2019-03-30T07:10:44.295Z,101943.09
2019-03-30T07:13:15.136Z,101939.29
2019-03-30T07:15:49.252Z,101927.77
2019-03-30T07:18:20.160Z,101940.24
2019-03-30T07:20:50.557Z,101936.34
2019-03-30T07:23:20.943Z,101935.70
2019-03-30T07:25:51.411Z,101934.09
2019-03-30T07:28:21.990Z,101939.70
2019-03-30T07:30:53.474Z,101942.82
2019-03-30T07:33:23.843Z,101931.34
2019-03-30T07:35:54.214Z,101938.78
2019-03-30T07:38:24.596Z,101938.01
2019-03-30T07:40:54.964Z,101941.33
2019-03-30T07:43:25.336Z,101939.36
2019-03-30T07:45:55.691Z,101940.91
2019-03-30T07:48:26.333Z,101937.50
2019-03-30T07:50:56.812Z,101935.08
2019-03-30T07:53:27.408Z,101934.37
2019-03-30T07:56:08.269Z,101939.65
2019-03-30T07:58:31.090Z,101943.34
2019-03-30T08:01:02.312Z,101933.26
2019-03-30T08:03:32.742Z,101940.53
2019-03-30T08:06:03.762Z,101929.89
2019-03-30T08:08:34.142Z,101935.03
2019-03-30T08:11:04.531Z,101927.03
2019-03-30T08:13:35.056Z,101925.06
2019-03-30T08:16:05.446Z,101922.47
2019-03-30T08:18:35.827Z,101928.92
2019-03-30T08:21:06.196Z,101921.83
2019-03-30T08:23:40.551Z,101916.28
2019-03-30T08:26:08.670Z,101922.52
2019-03-30T08:28:39.063Z,101923.51
2019-03-30T08:31:09.443Z,101919.55
2019-03-30T08:33:39.824Z,101907.67
2019-03-30T08:36:10.299Z,101900.83
2019-03-30T08:38:40.712Z,101908.19
2019-03-30T08:41:11.129Z,101904.11
2019-03-30T08:43:41.527Z,101903.08
2019-03-30T08:46:13.507Z,101899.06
2019-03-30T08:48:43.923Z,101902.67
2019-03-30T08:51:14.411Z,101898.87
2019-03-30T08:53:54.450Z,101898.06
2019-03-30T08:56:17.073Z,101895.14
2019-03-30T08:58:47.469Z,101897.70
2019-03-30T09:01:17.847Z,101894.92
2019-03-30T09:03:49.288Z,101897.77
2019-03-30T09:06:21.276Z,101891.64
2019-03-30T09:08:51.815Z,101886.41
2019-03-30T09:11:22.249Z,101885.27
2019-03-30T09:13:52.647Z,101886.95
2019-03-30T09:16:23.218Z,101889.24
2019-03-30T09:18:55.051Z,101884.55
2019-03-30T09:21:25.480Z,101885.23
2019-03-30T09:24:09.406Z,101875.25
2019-03-30T09:26:32.084Z,101875.78
2019-03-30T09:29:02.499Z,101873.28
2019-03-30T09:31:32.887Z,101877.22
2019-03-30T09:34:03.265Z,101866.29
2019-03-30T09:36:33.756Z,101872.27
2019-03-30T09:39:06.458Z,101866.44
2019-03-30T09:41:37.034Z,101862.12
2019-03-30T09:44:07.424Z,101861.81
2019-03-30T09:46:37.971Z,101861.59
2019-03-30T09:49:08.548Z,101848.13
2019-03-30T09:51:39.052Z,101848.52
2019-03-30T09:54:22.778Z,101846.70
2019-03-30T09:56:41.909Z,101845.60
2019-03-30T09:59:12.380Z,101842.33
2019-03-30T10:01:42.762Z,101832.81
2019-03-30T10:04:13.132Z,101832.22
2019-03-30T10:06:43.494Z,101825.48
2019-03-30T10:09:13.872Z,101820.81
2019-03-30T10:11:44.336Z,101819.27
2019-03-30T10:14:14.993Z,101817.72
2019-03-30T10:16:48.664Z,101811.73
2019-03-30T10:19:17.687Z,101808.17
2019-03-30T10:21:48.188Z,101802.41
2019-03-30T10:24:18.593Z,101803.52
2019-03-30T10:26:49.053Z,101796.58
2019-03-30T10:29:19.792Z,101792.31
2019-03-30T10:31:50.164Z,101789.15
2019-03-30T10:34:20.530Z,101784.84
2019-03-30T10:36:51.132Z,101790.16
2019-03-30T10:39:22.868Z,101785.70
2019-03-30T10:41:53.552Z,101777.94
2019-03-30T10:44:23.915Z,101771.47
2019-03-30T10:46:54.297Z,101769.50
2019-03-30T10:49:24.666Z,101763.06
2019-03-30T10:51:57.324Z,101761.48
2019-03-30T10:54:29.791Z,101751.91
2019-03-30T10:57:00.166Z,101753.29
2019-03-30T10:59:30.575Z,101749.65
2019-03-30T11:02:00.971Z,101747.75
2019-03-30T11:04:31.351Z,101755.41
2019-03-30T11:07:01.735Z,101742.70
2019-03-30T11:09:32.111Z,101739.69
2019-03-30T11:12:02.475Z,101731.70
2019-03-30T11:14:32.848Z,101727.83
2019-03-30T11:17:03.248Z,101724.05
2019-03-30T11:19:33.647Z,101717.66
2019-03-30T11:22:04.026Z,101720.59
2019-03-30T11:24:36.063Z,101712.27
2019-03-30T11:27:06.447Z,101713.00
2019-03-30T11:29:36.821Z,101708.48
2019-03-30T11:32:07.165Z,101706.83
2019-03-30T11:34:37.571Z,101708.17
2019-03-30T11:37:07.917Z,101690.05
2019-03-30T11:39:38.349Z,101694.05
2019-03-30T11:42:08.717Z,101694.62
2019-03-30T11:44:39.108Z,101690.89
2019-03-30T11:47:09.507Z,101684.21
2019-03-30T11:49:39.858Z,101691.23
2019-03-30T11:52:10.218Z,101680.50
2019-03-30T11:54:40.569Z,101683.95
2019-03-30T11:57:10.951Z,101684.00
2019-03-30T11:59:42.701Z,101676.78
2019-03-30T12:02:27.016Z,101672.52
2019-03-30T17:57:38.242Z,101253.75
2019-03-30T18:00:10.724Z,101258.19
2019-03-30T18:02:41.278Z,101257.89
2019-03-30T18:05:13.020Z,101257.19
2019-03-30T18:07:43.549Z,101261.21
2019-03-30T18:10:13.936Z,101259.64
2019-03-30T18:12:44.343Z,101259.64
2019-03-30T18:15:14.863Z,101264.43
2019-03-30T18:17:45.467Z,101268.36
2019-03-30T18:20:16.740Z,101266.23
2019-03-30T18:22:47.364Z,101265.89
2019-03-30T18:25:17.816Z,101266.19
2019-03-30T18:27:48.283Z,101265.89
2019-03-30T18:30:33.887Z,101267.45
2019-03-30T18:33:04.515Z,101266.95
2019-03-30T18:35:37.325Z,101261.72
2019-03-30T18:38:07.698Z,101267.30
2019-03-30T18:40:38.455Z,101272.73
2019-03-30T18:43:09.195Z,101263.91
2019-03-30T18:45:39.590Z,101264.39
2019-03-30T18:48:14.261Z,101271.73
2019-03-30T18:50:45.242Z,101270.31
2019-03-30T18:53:16.050Z,101263.81
2019-03-30T18:55:46.455Z,101271.41
2019-03-30T18:58:17.082Z,101270.78
2019-03-30T19:00:47.690Z,101268.63
2019-03-30T19:03:20.201Z,101265.85
2019-03-30T19:05:50.913Z,101269.36
2019-03-30T19:08:21.450Z,101275.21
2019-03-30T19:10:51.811Z,101268.00
2019-03-30T19:13:23.434Z,101267.44
2019-03-30T19:15:53.849Z,101265.31
2019-03-30T19:18:25.222Z,101270.47
2019-03-30T19:20:55.632Z,101264.18
2019-03-30T19:23:26.149Z,101267.11
2019-03-30T19:25:56.560Z,101265.69
2019-03-30T19:28:27.306Z,101261.42
2019-03-30T19:30:58.787Z,101266.49
2019-03-30T19:33:29.532Z,101264.97
2019-03-30T19:35:59.919Z,101263.75
2019-03-30T19:38:30.563Z,101265.83
2019-03-30T19:41:01.025Z,101269.69
2019-03-30T19:43:31.408Z,101263.83
2019-03-30T19:46:01.790Z,101263.84
2019-03-30T19:48:32.379Z,101267.01
2019-03-30T19:51:02.952Z,101257.44
2019-03-30T19:53:34.838Z,101261.14
2019-03-30T19:56:05.713Z,101261.85
2019-03-30T19:58:36.449Z,101261.08
2019-03-30T20:01:08.494Z,101259.36
2019-03-30T20:03:38.991Z,101262.36
2019-03-30T20:06:09.439Z,101265.94
2019-03-30T20:08:39.840Z,101268.37
2019-03-30T20:11:11.701Z,101274.42
2019-03-30T20:13:42.104Z,101274.02
2019-03-30T20:16:12.729Z,101277.47
2019-03-30T20:18:43.144Z,101274.91
2019-03-30T20:21:14.535Z,101270.06
2019-03-30T20:23:44.956Z,101270.00
2019-03-30T20:26:16.423Z,101265.93
2019-03-30T20:28:46.785Z,101270.56
2019-03-30T20:31:18.829Z,101265.22
2019-03-30T20:33:49.317Z,101263.58
2019-03-30T20:36:19.783Z,101263.34
2019-03-30T20:38:51.324Z,101257.34
2019-03-30T20:41:23.867Z,101258.17
2019-03-30T20:43:54.267Z,101258.41
2019-03-30T20:46:24.720Z,101254.03
2019-03-30T20:48:55.091Z,101255.19
2019-03-30T20:51:25.829Z,101253.47
2019-03-30T20:53:56.317Z,101250.63
2019-03-30T20:56:26.734Z,101243.84
2019-03-30T20:58:57.240Z,101238.60
2019-03-30T21:01:27.654Z,101238.88
2019-03-30T21:03:58.068Z,101241.17
2019-03-30T21:06:28.544Z,101240.62
2019-03-30T21:08:59.033Z,101240.71
2019-03-30T21:11:29.510Z,101239.58
2019-03-30T21:14:00.704Z,101236.92
2019-03-30T21:16:31.386Z,101230.65
2019-03-30T21:19:01.789Z,101237.41
2019-03-30T21:21:32.162Z,101231.70
2019-03-30T21:24:03.626Z,101228.20
2019-03-30T21:26:34.376Z,101232.27
2019-03-30T21:29:04.952Z,101231.69
2019-03-30T21:31:35.400Z,101228.95
2019-03-30T21:34:06.855Z,101233.22
2019-03-30T21:36:37.323Z,101235.51
2019-03-30T21:39:09.010Z,101234.52
2019-03-30T21:41:39.726Z,101231.66
2019-03-30T21:44:21.329Z,101232.14
2019-03-30T21:46:42.757Z,101230.50
2019-03-30T21:49:13.147Z,101233.58
2019-03-30T21:51:43.601Z,101231.45
2019-03-30T21:54:13.999Z,101230.09
2019-03-30T21:56:44.401Z,101231.14
2019-03-30T21:59:14.794Z,101227.95
2019-03-30T22:01:45.177Z,101232.02
2019-03-30T22:04:15.571Z,101227.16
2019-03-30T22:06:45.984Z,101223.17
2019-03-30T22:09:16.372Z,101223.48
2019-03-30T22:11:46.732Z,101228.05
2019-03-30T22:14:17.130Z,101222.37
2019-03-30T22:16:47.514Z,101219.07
2019-03-30T22:19:17.883Z,101222.52
2019-03-30T22:21:48.260Z,101221.02
2019-03-30T22:24:18.636Z,101219.03
2019-03-30T22:26:49.742Z,101217.36
2019-03-30T22:29:20.154Z,101216.08
2019-03-30T22:31:50.545Z,101214.46
2019-03-30T22:34:20.946Z,101210.69
2019-03-30T22:36:51.323Z,101215.38
2019-03-30T22:39:22.105Z,101208.56
2019-03-30T22:41:52.484Z,101205.49
2019-03-30T22:44:22.935Z,101206.45
2019-03-30T22:46:52.311Z,101206.63
2019-03-30T22:49:22.684Z,101205.55
2019-03-30T22:51:53.151Z,101200.98
2019-03-30T22:54:23.539Z,101201.17
2019-03-30T22:56:53.949Z,101205.46
2019-03-30T22:59:24.295Z,101202.75
2019-03-30T23:01:54.723Z,101211.28
2019-03-30T23:04:25.100Z,101206.81
2019-03-30T23:06:55.493Z,101194.86
2019-03-30T23:09:25.870Z,101192.69
2019-03-30T23:11:56.252Z,101197.73
2019-03-30T23:14:26.647Z,101193.05
2019-03-30T23:16:57.008Z,101195.70
2019-03-30T23:19:27.356Z,101193.09
2019-03-30T23:21:57.796Z,101203.81
2019-03-30T23:24:28.150Z,101194.41
2019-03-30T23:26:58.522Z,101196.66
2019-03-30T23:29:29.233Z,101195.24
2019-03-30T23:31:59.603Z,101196.92
2019-03-30T23:34:30.495Z,101191.78
2019-03-30T23:37:00.857Z,101191.88
2019-03-30T23:39:31.220Z,101187.39
2019-03-30T23:42:02.528Z,101189.01
2019-03-30T23:44:32.906Z,101185.80
2019-03-30T23:47:03.265Z,101177.38
2019-03-30T23:49:33.645Z,101188.61
2019-03-30T23:52:04.310Z,101185.58
2019-03-30T23:54:34.699Z,101182.84
2019-03-30T23:57:05.053Z,101176.11
2019-03-30T23:59:35.433Z,101176.81
